Time;durP1;ratioP1;P1;durP2;ratioP2;P2;SDS_P1;SDS_P2;PMS_P1;PMS_P2;Temp;Humidity;BMP_temperature;BMP_pressure;BME280_temperature;BME280_humidity;BME280_pressure;Samples;Min_cycle;Max_cycle;Signal;HPM_P1;HPM_P2
2023/06/16 00:00:13;;;;;;;3.15;2.62;;;18.20;47.30;;;;;;916765;153;27458;-74
2023/06/16 00:02:41;;;;;;;3.12;2.87;;;18.10;47.40;;;;;;917324;153;27426;-74
2023/06/16 00:05:07;;;;;;;3.33;3.10;;;18.10;47.60;;;;;;917067;153;27408;-74
2023/06/16 00:07:33;;;;;;;3.10;2.87;;;18.10;47.80;;;;;;917575;153;27466;-74
2023/06/16 00:09:59;;;;;;;2.90;2.70;;;18.00;47.90;;;;;;917512;153;27344;-74
2023/06/16 00:12:26;;;;;;;3.12;2.83;;;18.00;48.00;;;;;;919869;153;27416;-74
2023/06/16 00:14:52;;;;;;;4.50;3.08;;;18.00;48.10;;;;;;915754;153;27387;-74
2023/06/16 00:17:20;;;;;;;3.37;3.08;;;17.90;48.00;;;;;;918694;153;27396;-74
2023/06/16 00:19:47;;;;;;;4.00;3.37;;;17.90;48.20;;;;;;919021;153;27359;-74
2023/06/16 00:22:12;;;;;;;3.30;2.77;;;17.80;48.40;;;;;;918203;153;27486;-75
2023/06/16 00:24:39;;;;;;;4.45;3.10;;;17.70;48.60;;;;;;920881;153;27344;-75
2023/06/16 00:27:05;;;;;;;3.37;3.00;;;17.60;48.70;;;;;;920172;153;27489;-75
2023/06/16 00:29:32;;;;;;;3.65;3.33;;;17.60;49.00;;;;;;921438;153;27472;-75
2023/06/16 00:31:58;;;;;;;5.53;3.08;;;17.50;49.00;;;;;;920735;153;27455;-75
2023/06/16 00:34:25;;;;;;;3.03;2.80;;;17.40;49.20;;;;;;918802;153;27322;-75
2023/06/16 00:36:52;;;;;;;5.78;3.72;;;17.30;49.30;;;;;;920267;153;27418;-75
2023/06/16 00:39:18;;;;;;;3.50;3.20;;;17.20;49.50;;;;;;917606;153;27494;-75
2023/06/16 00:41:45;;;;;;;3.40;2.80;;;17.10;49.60;;;;;;918152;153;27359;-75
2023/06/16 00:44:11;;;;;;;3.72;3.35;;;17.10;49.80;;;;;;919660;153;27432;-75
2023/06/16 00:46:38;;;;;;;4.37;2.72;;;17.00;50.00;;;;;;916740;153;27382;-74
2023/06/16 00:49:05;;;;;;;4.07;3.43;;;16.90;50.20;;;;;;920394;153;27400;-75
2023/06/16 00:51:32;;;;;;;4.60;3.20;;;16.80;50.30;;;;;;920624;153;27363;-75
2023/06/16 00:53:58;;;;;;;5.30;3.40;;;16.70;50.40;;;;;;918386;153;27339;-75
2023/06/16 00:56:24;;;;;;;6.05;3.37;;;16.70;50.60;;;;;;918551;153;27449;-75
2023/06/16 00:58:51;;;;;;;4.25;3.08;;;16.60;50.70;;;;;;919403;153;27505;-75
2023/06/16 01:01:17;;;;;;;6.10;3.43;;;16.50;50.70;;;;;;920164;153;27498;-75
2023/06/16 01:03:50;;;;;;;3.27;3.07;;;16.40;50.80;;;;;;915929;153;27417;-75
2023/06/16 01:06:13;;;;;;;4.65;3.45;;;16.30;51.00;;;;;;920344;153;27404;-75
2023/06/16 01:08:44;;;;;;;3.43;3.13;;;16.30;50.90;;;;;;916257;153;27370;-75
2023/06/16 01:11:18;;;;;;;3.70;3.40;;;16.20;51.30;;;;;;918201;153;27414;-74
2023/06/16 01:14:03;;;;;;;3.20;2.90;;;16.20;51.40;;;;;;919723;153;27383;-74
2023/06/16 01:16:31;;;;;;;3.63;2.90;;;16.10;51.50;;;;;;919806;153;27327;-74
2023/06/16 01:18:56;;;;;;;3.45;3.15;;;16.00;51.50;;;;;;919962;153;27454;-74
2023/06/16 01:21:25;;;;;;;3.93;3.30;;;15.90;51.80;;;;;;917371;153;27398;-74
2023/06/16 01:24:23;;;;;;;3.40;3.03;;;15.90;52.00;;;;;;917115;153;27470;-74
2023/06/16 01:26:46;;;;;;;4.17;3.20;;;15.90;52.20;;;;;;918790;153;27369;-74
2023/06/16 01:29:11;;;;;;;3.60;3.07;;;15.80;52.20;;;;;;916132;150;27391;-74
2023/06/16 01:31:36;;;;;;;4.57;2.83;;;15.80;52.60;;;;;;917319;153;27508;-74
2023/06/16 01:34:02;;;;;;;3.20;2.90;;;15.70;52.80;;;;;;918152;153;27343;-74
2023/06/16 01:36:31;;;;;;;3.53;3.07;;;15.70;53.00;;;;;;916149;153;27450;-74
2023/06/16 01:38:56;;;;;;;4.77;3.03;;;15.60;53.10;;;;;;916772;153;27334;-74
2023/06/16 01:41:22;;;;;;;3.40;3.10;;;15.70;53.20;;;;;;917306;153;27765;-74
2023/06/16 01:43:49;;;;;;;4.83;2.97;;;15.60;53.30;;;;;;917328;153;27791;-74
2023/06/16 01:46:15;;;;;;;3.43;3.13;;;15.60;53.30;;;;;;919049;153;27415;-74
2023/06/16 01:48:42;;;;;;;2.90;2.70;;;15.60;53.40;;;;;;914231;153;27434;-74
2023/06/16 01:51:09;;;;;;;4.10;3.10;;;15.60;53.60;;;;;;916354;153;27341;-74
2023/06/16 01:53:35;;;;;;;3.47;3.17;;;15.50;53.60;;;;;;914413;153;27420;-74
2023/06/16 01:56:02;;;;;;;3.70;3.17;;;15.50;53.70;;;;;;916142;153;27380;-74
2023/06/16 01:58:28;;;;;;;4.67;3.00;;;15.40;53.80;;;;;;917739;153;27326;-74
2023/06/16 02:01:07;;;;;;;3.33;3.03;;;15.40;54.00;;;;;;915942;153;27373;-74
2023/06/16 02:03:36;;;;;;;3.63;2.90;;;15.40;54.10;;;;;;917234;153;27431;-74
2023/06/16 02:06:03;;;;;;;5.83;3.17;;;15.30;54.20;;;;;;915129;153;27414;-74
2023/06/16 02:08:30;;;;;;;3.57;3.17;;;15.20;54.30;;;;;;916632;153;27395;-74
2023/06/16 02:10:56;;;;;;;6.37;3.57;;;15.20;54.60;;;;;;925113;153;27438;-74
2023/06/16 02:13:23;;;;;;;3.30;3.00;;;15.20;54.10;;;;;;916834;153;27368;-74
2023/06/16 02:15:49;;;;;;;3.40;3.10;;;15.10;54.80;;;;;;919323;153;27411;-74
2023/06/16 02:18:16;;;;;;;3.40;3.10;;;15.10;55.00;;;;;;917359;153;27483;-74
2023/06/16 02:20:43;;;;;;;3.67;3.37;;;15.00;55.20;;;;;;919264;153;27338;-76
2023/06/16 02:23:09;;;;;;;4.03;3.37;;;15.00;55.40;;;;;;918524;153;27450;-76
2023/06/16 02:25:36;;;;;;;3.97;2.97;;;15.00;55.50;;;;;;923227;152;27453;-76
2023/06/16 02:28:02;;;;;;;4.17;3.40;;;15.00;55.60;;;;;;927023;152;27449;-76
2023/06/16 02:30:29;;;;;;;3.57;3.27;;;14.90;55.80;;;;;;924112;151;27402;-76
2023/06/16 02:32:58;;;;;;;4.20;2.93;;;14.90;55.80;;;;;;917815;153;27443;-76
2023/06/16 02:35:22;;;;;;;3.63;3.33;;;14.90;55.90;;;;;;927624;151;27372;-76
2023/06/16 02:37:49;;;;;;;3.40;3.10;;;14.90;56.00;;;;;;923961;151;27491;-76
2023/06/16 02:40:15;;;;;;;3.30;3.10;;;14.90;56.00;;;;;;923947;152;27475;-76
2023/06/16 02:42:42;;;;;;;3.40;3.10;;;14.80;56.00;;;;;;923901;151;27355;-76
2023/06/16 02:45:08;;;;;;;4.23;3.27;;;14.80;56.20;;;;;;926955;151;27336;-76
2023/06/16 02:47:35;;;;;;;4.37;3.50;;;14.80;56.30;;;;;;921277;153;27406;-76
2023/06/16 02:50:02;;;;;;;3.90;3.07;;;14.80;56.40;;;;;;920504;153;27774;-76
2023/06/16 02:52:28;;;;;;;3.77;3.23;;;14.80;56.60;;;;;;920181;153;27506;-76
2023/06/16 02:54:55;;;;;;;3.47;3.17;;;14.70;56.60;;;;;;921779;153;27443;-76
2023/06/16 02:57:21;;;;;;;8.60;3.60;;;14.70;56.70;;;;;;920275;153;27375;-76
2023/06/16 02:59:48;;;;;;;3.73;3.33;;;14.80;56.90;;;;;;925583;151;27392;-76
2023/06/16 03:02:15;;;;;;;3.30;3.00;;;14.80;57.00;;;;;;926401;152;27449;-76
2023/06/16 03:04:42;;;;;;;6.73;3.90;;;14.80;57.00;;;;;;925552;152;27464;-76
2023/06/16 03:07:08;;;;;;;3.80;3.23;;;14.80;57.00;;;;;;924231;152;27367;-76
2023/06/16 03:09:34;;;;;;;3.30;2.97;;;14.80;57.00;;;;;;923067;152;27292;-76
2023/06/16 03:12:01;;;;;;;4.10;3.60;;;14.80;57.00;;;;;;923428;152;27397;-76
2023/06/16 03:14:28;;;;;;;3.33;3.03;;;14.80;57.10;;;;;;910976;154;27413;-76
2023/06/16 03:16:55;;;;;;;5.87;4.27;;;14.80;57.20;;;;;;924746;151;27440;-76
2023/06/16 03:19:21;;;;;;;3.97;3.57;;;14.80;57.10;;;;;;919936;153;27354;-76
2023/06/16 03:21:50;;;;;;;3.83;3.20;;;14.80;57.10;;;;;;921501;153;27411;-76
2023/06/16 03:24:16;;;;;;;3.57;3.27;;;14.80;57.20;;;;;;916822;153;27673;-76
2023/06/16 03:26:40;;;;;;;3.80;3.20;;;14.80;57.30;;;;;;912935;154;27485;-76
2023/06/16 03:29:07;;;;;;;3.37;3.07;;;14.80;57.40;;;;;;912978;153;27346;-76
2023/06/16 03:31:34;;;;;;;3.37;3.17;;;14.80;57.50;;;;;;920196;153;27411;-76
2023/06/16 03:34:00;;;;;;;3.67;3.23;;;14.80;57.60;;;;;;912922;154;27532;-76
2023/06/16 03:36:27;;;;;;;3.47;3.20;;;14.80;57.60;;;;;;912206;154;27497;-76
2023/06/16 03:38:53;;;;;;;3.30;3.00;;;14.80;57.60;;;;;;912368;154;27828;-76
2023/06/16 03:41:20;;;;;;;4.10;3.30;;;14.80;57.80;;;;;;924456;152;27323;-76
2023/06/16 03:43:47;;;;;;;3.33;3.03;;;14.80;57.80;;;;;;924890;152;27285;-76
2023/06/16 03:46:13;;;;;;;3.53;3.23;;;14.90;58.00;;;;;;906908;156;27500;-76
2023/06/16 03:48:40;;;;;;;3.20;2.90;;;14.90;58.00;;;;;;908014;155;27439;-76
2023/06/16 03:51:06;;;;;;;3.80;3.50;;;14.90;58.10;;;;;;906554;156;27364;-76
2023/06/16 03:53:33;;;;;;;3.93;3.37;;;15.00;58.20;;;;;;896025;155;27369;-76
2023/06/16 03:55:59;;;;;;;5.40;3.60;;;15.00;58.20;;;;;;924964;152;27390;-77
2023/06/16 03:58:28;;;;;;;4.40;3.50;;;15.10;58.30;;;;;;923628;152;27401;-76
2023/06/16 04:00:53;;;;;;;3.85;3.50;;;15.20;58.40;;;;;;909234;155;27404;-77
2023/06/16 04:03:19;;;;;;;3.80;3.50;;;15.30;58.60;;;;;;901816;156;27398;-77
2023/06/16 04:05:46;;;;;;;5.58;3.52;;;15.40;58.50;;;;;;925121;152;27343;-76
2023/06/16 04:08:12;;;;;;;3.50;3.27;;;15.50;58.50;;;;;;924889;152;27393;-76
2023/06/16 04:10:39;;;;;;;3.87;3.35;;;15.70;58.40;;;;;;912718;154;27389;-76
2023/06/16 04:13:06;;;;;;;4.12;3.72;;;15.80;58.40;;;;;;923646;152;27282;-76
2023/06/16 04:15:32;;;;;;;4.97;4.03;;;16.00;58.30;;;;;;924906;152;27371;-76
2023/06/16 04:17:59;;;;;;;4.10;3.70;;;16.10;58.20;;;;;;908429;155;27415;-76
2023/06/16 04:20:25;;;;;;;3.65;3.35;;;16.20;58.00;;;;;;922010;152;27390;-76
2023/06/16 04:22:52;;;;;;;3.87;3.57;;;16.40;58.10;;;;;;890818;157;27426;-76
2023/06/16 04:25:21;;;;;;;3.92;3.60;;;16.50;58.00;;;;;;893876;156;27505;-76
2023/06/16 04:27:46;;;;;;;4.47;3.40;;;16.50;57.80;;;;;;894708;155;27341;-76
2023/06/16 04:30:12;;;;;;;4.25;3.52;;;16.60;57.80;;;;;;892166;155;27504;-76
2023/06/16 04:32:38;;;;;;;4.97;3.47;;;16.70;57.80;;;;;;890617;155;27433;-76
2023/06/16 04:35:06;;;;;;;4.40;4.05;;;16.70;57.20;;;;;;890599;155;27366;-76
2023/06/16 04:37:31;;;;;;;3.60;3.30;;;16.80;57.80;;;;;;892763;155;27327;-76
2023/06/16 04:39:58;;;;;;;3.90;3.60;;;16.90;57.90;;;;;;917556;154;27496;-76
2023/06/16 04:42:25;;;;;;;4.75;3.50;;;16.90;57.90;;;;;;917071;153;27463;-76
2023/06/16 04:44:51;;;;;;;4.00;3.40;;;17.00;57.90;;;;;;916435;153;27283;-76
2023/06/16 04:47:18;;;;;;;4.00;3.70;;;17.10;58.00;;;;;;922080;152;27359;-76
2023/06/16 04:49:44;;;;;;;4.10;3.77;;;17.20;58.00;;;;;;917440;153;27381;-77
2023/06/16 04:52:12;;;;;;;4.25;3.87;;;17.20;58.10;;;;;;918330;153;27382;-76
2023/06/16 04:54:38;;;;;;;4.35;4.00;;;17.30;58.10;;;;;;916280;154;27497;-77
2023/06/16 04:57:04;;;;;;;4.95;3.77;;;17.40;58.30;;;;;;920720;153;27473;-77
2023/06/16 04:59:31;;;;;;;4.37;3.98;;;17.60;58.80;;;;;;915355;153;27418;-77
2023/06/16 05:01:57;;;;;;;4.97;3.65;;;17.90;59.30;;;;;;917370;154;27327;-77
2023/06/16 05:04:24;;;;;;;3.92;3.62;;;18.30;59.80;;;;;;907499;155;27436;-77
2023/06/16 05:06:51;;;;;;;4.62;3.60;;;18.80;60.30;;;;;;921450;152;27797;-77
2023/06/16 05:09:17;;;;;;;3.37;3.17;;;19.40;60.50;;;;;;896211;155;27375;-77
2023/06/16 05:11:44;;;;;;;3.72;3.42;;;20.10;60.20;;;;;;924040;151;27771;-77
2023/06/16 05:14:10;;;;;;;3.98;3.20;;;20.90;59.70;;;;;;921829;152;27740;-77
2023/06/16 05:16:37;;;;;;;3.98;3.17;;;21.70;59.10;;;;;;922125;152;27427;-77
2023/06/16 05:19:04;;;;;;;3.55;3.25;;;22.60;58.30;;;;;;922982;152;27316;-77
2023/06/16 05:21:30;;;;;;;5.37;3.05;;;23.50;57.10;;;;;;922317;152;27366;-77
2023/06/16 05:23:57;;;;;;;3.87;3.58;;;24.40;56.00;;;;;;921983;150;27437;-77
2023/06/16 05:26:23;;;;;;;3.33;3.02;;;25.20;55.00;;;;;;916428;154;27507;-77
2023/06/16 05:28:50;;;;;;;3.52;3.10;;;26.00;53.90;;;;;;911877;153;27448;-77
2023/06/16 05:31:16;;;;;;;3.60;3.30;;;26.80;52.80;;;;;;913592;154;27495;-78
2023/06/16 05:33:43;;;;;;;3.20;3.00;;;27.50;51.80;;;;;;911783;154;27505;-78
2023/06/16 05:36:10;;;;;;;3.22;2.92;;;28.20;50.70;;;;;;913306;154;27365;-77
2023/06/16 05:38:36;;;;;;;6.10;3.65;;;28.80;49.90;;;;;;912897;154;27413;-77
2023/06/16 05:41:03;;;;;;;3.27;2.98;;;29.40;48.90;;;;;;924619;152;27813;-77
2023/06/16 05:43:29;;;;;;;3.90;3.12;;;30.00;48.10;;;;;;914433;154;27425;-78
2023/06/16 05:45:56;;;;;;;5.03;3.65;;;30.60;47.50;;;;;;914160;154;27352;-77
2023/06/16 05:48:23;;;;;;;3.77;3.08;;;31.20;46.90;;;;;;913719;154;27393;-78
2023/06/16 05:50:50;;;;;;;3.40;2.90;;;31.80;46.10;;;;;;913676;154;27411;-78
2023/06/16 05:53:16;;;;;;;3.87;3.25;;;32.40;44.60;;;;;;913841;154;27422;-78
2023/06/16 05:55:42;;;;;;;3.22;2.92;;;33.00;44.40;;;;;;911592;154;27424;-78
2023/06/16 05:58:09;;;;;;;3.25;3.05;;;33.60;43.30;;;;;;913650;154;27368;-78
2023/06/16 06:00:36;;;;;;;4.72;3.10;;;34.10;42.30;;;;;;925251;152;26379;-78
2023/06/16 06:03:04;;;;;;;3.90;3.10;;;34.60;41.50;;;;;;892467;156;27397;-78
2023/06/16 06:05:29;;;;;;;2.80;2.60;;;35.00;40.90;;;;;;891132;157;26248;-78
2023/06/16 06:07:55;;;;;;;3.77;2.67;;;35.40;40.20;;;;;;892439;156;26282;-76
2023/06/16 06:10:22;;;;;;;3.17;2.70;;;35.90;39.50;;;;;;892410;156;26796;-76
2023/06/16 06:12:48;;;;;;;4.30;2.60;;;36.20;38.50;;;;;;914591;154;26317;-76
2023/06/16 06:15:17;;;;;;;3.05;2.60;;;36.40;37.80;;;;;;915703;155;26628;-76
2023/06/16 06:17:42;;;;;;;3.00;2.80;;;36.60;37.20;;;;;;892520;156;26275;-76
2023/06/16 06:20:08;;;;;;;2.70;2.50;;;36.80;36.90;;;;;;892546;159;26320;-76
2023/06/16 06:22:35;;;;;;;2.90;2.65;;;37.10;36.80;;;;;;892798;156;26779;-76
2023/06/16 06:25:03;;;;;;;2.77;2.58;;;37.30;36.50;;;;;;891016;159;26287;-76
2023/06/16 06:27:28;;;;;;;2.90;2.70;;;37.60;36.20;;;;;;891788;155;26320;-76
2023/06/16 06:29:55;;;;;;;5.60;3.08;;;37.90;35.90;;;;;;892826;155;26254;-76
2023/06/16 06:32:21;;;;;;;3.83;2.52;;;38.30;35.50;;;;;;891763;155;26319;-76
2023/06/16 06:34:48;;;;;;;2.62;2.42;;;38.70;35.10;;;;;;891406;155;26306;-76
2023/06/16 06:37:18;;;;;;;2.60;2.33;;;39.10;34.50;;;;;;917446;154;26386;-76
2023/06/16 06:39:41;;;;;;;4.30;2.72;;;39.50;33.90;;;;;;915893;153;26265;-76
2023/06/16 06:42:08;;;;;;;2.87;2.58;;;39.80;32.90;;;;;;917516;154;26386;-76
2023/06/16 06:44:34;;;;;;;3.05;2.40;;;40.00;32.50;;;;;;916663;154;26288;-76
2023/06/16 06:47:01;;;;;;;3.12;2.55;;;40.20;32.30;;;;;;917486;154;26301;-76
2023/06/16 06:49:28;;;;;;;4.72;2.62;;;40.50;31.90;;;;;;918768;154;26345;-76
2023/06/16 06:51:54;;;;;;;5.22;2.20;;;40.70;31.30;;;;;;923816;152;26322;-76
2023/06/16 06:54:21;;;;;;;3.58;2.65;;;41.00;31.00;;;;;;908633;155;26240;-76
2023/06/16 06:56:47;;;;;;;3.17;2.30;;;41.20;30.50;;;;;;917630;153;26402;-76
2023/06/16 06:59:14;;;;;;;2.98;2.62;;;41.50;30.30;;;;;;919299;154;26377;-76
2023/06/16 07:01:40;;;;;;;2.47;2.25;;;41.70;30.10;;;;;;916704;154;26206;-76
2023/06/16 07:04:07;;;;;;;3.40;2.45;;;41.90;29.80;;;;;;916530;153;26355;-76
2023/06/16 07:06:34;;;;;;;4.72;2.72;;;42.20;29.60;;;;;;916486;154;26382;-76
2023/06/16 07:09:00;;;;;;;2.40;2.20;;;42.40;29.40;;;;;;916126;154;26314;-76
2023/06/16 07:11:27;;;;;;;2.95;2.50;;;42.70;29.00;;;;;;918196;154;26189;-74
2023/06/16 07:13:53;;;;;;;3.15;2.58;;;42.80;28.50;;;;;;922583;152;27782;-74
2023/06/16 07:16:20;;;;;;;3.20;2.60;;;43.00;28.40;;;;;;891273;155;26283;-74
2023/06/16 07:18:47;;;;;;;4.20;2.50;;;43.20;28.30;;;;;;893785;155;26381;-74
2023/06/16 07:21:13;;;;;;;2.10;2.00;;;43.40;28.20;;;;;;891219;155;26276;-75
2023/06/16 07:23:40;;;;;;;3.00;2.55;;;43.70;28.00;;;;;;891010;155;26851;-75
2023/06/16 07:26:06;;;;;;;3.33;2.05;;;44.00;27.80;;;;;;917038;154;26375;-75
2023/06/16 07:28:33;;;;;;;2.47;2.27;;;44.30;27.50;;;;;;917203;154;26326;-76
2023/06/16 07:31:00;;;;;;;3.05;2.77;;;44.60;27.30;;;;;;917890;154;26335;-76
2023/06/16 07:33:26;;;;;;;2.20;2.00;;;44.90;26.90;;;;;;920536;152;26254;-76
2023/06/16 07:35:53;;;;;;;3.22;2.20;;;45.20;26.70;;;;;;914922;153;26249;-76
2023/06/16 07:38:20;;;;;;;2.30;2.20;;;45.40;26.30;;;;;;917891;154;26237;-75
2023/06/16 07:40:46;;;;;;;2.00;1.85;;;45.60;26.10;;;;;;916719;154;26284;-76
2023/06/16 07:43:13;;;;;;;2.47;2.27;;;45.80;26.00;;;;;;916382;153;26284;-75
2023/06/16 07:45:39;;;;;;;2.35;2.15;;;46.00;25.80;;;;;;923069;152;26266;-75
2023/06/16 07:48:08;;;;;;;2.25;2.15;;;46.10;25.50;;;;;;890130;156;26295;-76
2023/06/16 07:50:32;;;;;;;4.58;2.40;;;46.30;25.50;;;;;;924014;152;26274;-76
2023/06/16 07:52:59;;;;;;;2.47;2.27;;;46.60;25.40;;;;;;893137;155;26290;-76
2023/06/16 07:55:25;;;;;;;2.22;2.02;;;46.80;25.20;;;;;;889794;155;26398;-76
2023/06/16 07:57:52;;;;;;;3.75;2.10;;;47.00;24.90;;;;;;916532;154;26764;-76
2023/06/16 08:00:19;;;;;;;2.70;1.70;;;47.30;24.50;;;;;;917304;154;26291;-76
2023/06/16 08:02:45;;;;;;;2.20;2.00;;;47.40;24.30;;;;;;918175;153;26377;-76
2023/06/16 08:05:12;;;;;;;2.05;1.95;;;47.60;24.10;;;;;;917317;154;26277;-76
2023/06/16 08:07:38;;;;;;;2.83;1.80;;;47.60;24.00;;;;;;922202;152;26355;-76
2023/06/16 08:10:05;;;;;;;2.00;1.75;;;47.70;23.80;;;;;;908384;155;26259;-76
2023/06/16 08:12:32;;;;;;;2.27;2.10;;;47.90;23.70;;;;;;915218;154;26320;-76
2023/06/16 08:14:58;;;;;;;4.03;2.22;;;47.90;23.50;;;;;;917978;153;26435;-76
2023/06/16 08:17:25;;;;;;;3.37;2.20;;;47.90;23.40;;;;;;914662;154;26291;-76
2023/06/16 08:19:53;;;;;;;2.25;2.05;;;47.90;23.40;;;;;;916487;154;26253;-76
2023/06/16 08:22:18;;;;;;;2.00;1.80;;;48.00;23.30;;;;;;915494;154;26408;-76
2023/06/16 08:24:45;;;;;;;3.77;2.20;;;48.20;23.50;;;;;;916189;154;26312;-76
2023/06/16 08:27:11;;;;;;;2.12;1.92;;;48.30;23.20;;;;;;919060;154;26308;-76
2023/06/16 08:29:39;;;;;;;2.30;2.05;;;48.40;22.90;;;;;;918178;151;26266;-76
2023/06/16 08:32:06;;;;;;;2.30;2.10;;;48.40;22.60;;;;;;920383;153;26252;-76
2023/06/16 08:34:31;;;;;;;3.70;2.08;;;48.20;22.70;;;;;;923499;153;26316;-76
2023/06/16 08:36:58;;;;;;;4.90;2.00;;;48.00;22.60;;;;;;920350;153;26314;-76
2023/06/16 08:39:24;;;;;;;2.12;1.98;;;47.80;22.80;;;;;;919467;153;26291;-76
2023/06/16 08:41:51;;;;;;;3.85;2.30;;;47.70;22.80;;;;;;920395;153;26467;-76
2023/06/16 08:44:19;;;;;;;3.15;2.35;;;47.60;22.90;;;;;;921840;153;26268;-76
2023/06/16 08:46:44;;;;;;;2.75;2.00;;;47.70;22.70;;;;;;921624;153;26427;-76
2023/06/16 08:49:14;;;;;;;2.00;1.90;;;47.90;22.60;;;;;;919553;153;26335;-76
2023/06/16 08:51:40;;;;;;;1.80;1.70;;;47.90;22.50;;;;;;918489;151;26261;-76
2023/06/16 08:54:04;;;;;;;2.25;2.08;;;47.90;22.30;;;;;;908143;154;26331;-76
2023/06/16 08:56:32;;;;;;;1.98;1.77;;;47.90;22.50;;;;;;906446;154;26382;-76
2023/06/16 08:58:57;;;;;;;4.37;2.20;;;47.90;22.50;;;;;;925865;151;26433;-76
2023/06/16 09:01:24;;;;;;;2.22;2.02;;;47.90;22.40;;;;;;923627;151;26384;-76
2023/06/16 09:03:50;;;;;;;2.00;1.90;;;47.80;22.20;;;;;;924217;151;26189;-76
2023/06/16 09:06:17;;;;;;;1.95;1.82;;;47.70;22.20;;;;;;924218;151;26246;-76
2023/06/16 09:08:43;;;;;;;2.65;2.00;;;47.70;22.10;;;;;;921748;150;26307;-75
2023/06/16 09:11:10;;;;;;;3.37;2.08;;;47.50;22.10;;;;;;922001;151;26310;-75
2023/06/16 09:13:36;;;;;;;2.20;2.10;;;47.40;21.80;;;;;;910429;154;26300;-76
2023/06/16 09:16:03;;;;;;;2.37;2.20;;;47.20;21.70;;;;;;909196;154;26268;-76
2023/06/16 09:18:44;;;;;;;1.80;1.70;;;47.00;21.70;;;;;;928557;151;26259;-75
2023/06/16 09:21:06;;;;;;;2.35;2.15;;;46.80;21.90;;;;;;924073;151;26303;-75
2023/06/16 09:23:32;;;;;;;2.77;1.80;;;46.60;22.10;;;;;;924380;151;26346;-76
2023/06/16 09:25:58;;;;;;;3.67;2.22;;;46.60;22.10;;;;;;925067;151;26223;-76
2023/06/16 09:28:37;;;;;;;3.33;1.80;;;46.50;22.20;;;;;;910842;153;26239;-76
2023/06/16 09:31:06;;;;;;;2.70;2.05;;;46.50;22.20;;;;;;925217;150;26406;-76
2023/06/16 09:33:33;;;;;;;2.12;2.00;;;46.50;22.20;;;;;;924436;152;26315;-76
2023/06/16 09:35:59;;;;;;;1.90;1.80;;;46.60;22.00;;;;;;913908;154;26430;-76
2023/06/16 09:38:27;;;;;;;2.08;1.87;;;46.50;22.00;;;;;;915544;154;26400;-76
2023/06/16 09:40:52;;;;;;;2.08;1.98;;;46.40;21.90;;;;;;913145;154;26279;-76
2023/06/16 09:43:19;;;;;;;2.25;2.02;;;46.20;21.80;;;;;;915018;154;26766;-76
2023/06/16 09:45:46;;;;;;;2.42;2.22;;;45.90;21.80;;;;;;912840;154;26391;-76
2023/06/16 09:48:12;;;;;;;1.95;1.85;;;45.70;21.80;;;;;;923146;152;26273;-75
2023/06/16 09:50:40;;;;;;;2.12;1.90;;;45.40;21.90;;;;;;925187;152;26290;-76
2023/06/16 09:53:06;;;;;;;2.60;1.80;;;45.10;22.20;;;;;;906106;156;26294;-76
2023/06/16 09:55:32;;;;;;;1.80;1.70;;;44.90;22.30;;;;;;927112;152;27023;-76
2023/06/16 09:57:59;;;;;;;1.80;1.70;;;44.60;22.30;;;;;;925456;152;26301;-76
2023/06/16 10:00:25;;;;;;;2.02;1.92;;;44.40;22.30;;;;;;909224;155;26272;-76
2023/06/16 10:02:52;;;;;;;1.87;1.77;;;44.10;22.30;;;;;;914488;154;26215;-76
2023/06/16 10:05:18;;;;;;;2.12;2.02;;;43.90;22.40;;;;;;926160;152;26274;-76
2023/06/16 10:07:51;;;;;;;2.40;2.20;;;43.50;22.40;;;;;;908522;155;26364;-76
2023/06/16 10:10:18;;;;;;;1.98;1.87;;;43.10;22.00;;;;;;904887;156;26388;-76
2023/06/16 10:12:47;;;;;;;3.05;2.20;;;42.60;22.50;;;;;;896596;155;26348;-76
2023/06/16 10:15:22;;;;;;;2.00;1.90;;;42.20;22.60;;;;;;926716;152;26644;-76
2023/06/16 10:17:49;;;;;;;2.17;2.00;;;41.60;22.80;;;;;;925778;152;26202;-76
2023/06/16 10:20:15;;;;;;;2.17;2.08;;;41.10;22.80;;;;;;913308;154;26250;-76
2023/06/16 10:22:42;;;;;;;3.62;2.37;;;40.50;22.80;;;;;;910844;154;26280;-75
2023/06/16 10:25:09;;;;;;;2.40;2.20;;;40.00;23.10;;;;;;914414;154;26304;-75
2023/06/16 10:27:35;;;;;;;2.20;2.10;;;39.50;23.40;;;;;;914859;154;26711;-76
2023/06/16 10:30:02;;;;;;;2.95;2.17;;;39.00;23.50;;;;;;918920;153;26359;-76
2023/06/16 10:32:28;;;;;;;3.37;2.15;;;38.60;23.80;;;;;;907454;155;26414;-76
2023/06/16 10:34:58;;;;;;;2.42;2.22;;;38.20;23.90;;;;;;919026;153;27440;-75
2023/06/16 10:37:24;;;;;;;2.58;2.37;;;37.80;23.90;;;;;;923406;152;27456;-75
2023/06/16 10:39:51;;;;;;;2.35;2.15;;;37.40;24.00;;;;;;906395;155;27397;-75
2023/06/16 10:42:17;;;;;;;2.52;2.33;;;37.00;24.20;;;;;;905383;155;27432;-75
2023/06/16 10:44:44;;;;;;;3.55;2.20;;;36.70;24.50;;;;;;916926;154;27377;-75
2023/06/16 10:47:11;;;;;;;2.45;2.10;;;36.40;24.70;;;;;;917295;154;27502;-75
2023/06/16 10:49:57;;;;;;;2.65;2.45;;;36.10;24.80;;;;;;920360;154;27491;-75
2023/06/16 10:52:31;;;;;;;2.30;2.10;;;35.80;25.10;;;;;;918946;153;27485;-75
2023/06/16 10:54:58;;;;;;;2.12;1.95;;;35.50;24.90;;;;;;921728;152;27351;-75
2023/06/16 10:57:25;;;;;;;2.60;2.25;;;35.20;24.90;;;;;;917343;154;27389;-75
2023/06/16 10:59:56;;;;;;;4.85;2.17;;;34.90;25.10;;;;;;917379;154;27424;-75
2023/06/16 11:02:23;;;;;;;2.10;2.00;;;34.60;25.20;;;;;;917846;153;27312;-75
2023/06/16 11:05:07;;;;;;;2.42;2.22;;;34.40;25.40;;;;;;892874;156;27430;-75
2023/06/16 11:07:48;;;;;;;2.20;2.10;;;34.00;25.50;;;;;;924784;152;28036;-75
2023/06/16 11:10:18;;;;;;;2.40;2.20;;;33.70;25.70;;;;;;922367;152;27323;-75
2023/06/16 11:12:44;;;;;;;2.50;2.30;;;33.40;26.00;;;;;;905805;155;27479;-75
2023/06/16 11:15:11;;;;;;;3.60;2.37;;;33.10;26.30;;;;;;916821;154;27425;-75
2023/06/16 11:17:38;;;;;;;2.98;2.77;;;32.80;26.70;;;;;;892627;155;27464;-75
2023/06/16 11:20:06;;;;;;;2.70;2.50;;;32.70;26.90;;;;;;891917;155;27366;-75
2023/06/16 11:22:31;;;;;;;2.30;2.10;;;32.60;26.90;;;;;;917792;154;27338;-75
2023/06/16 11:24:57;;;;;;;2.33;1.92;;;32.40;27.00;;;;;;908647;155;27381;-75
2023/06/16 11:27:24;;;;;;;2.42;2.30;;;32.30;27.70;;;;;;921894;152;27496;-75
2023/06/16 11:29:53;;;;;;;2.45;2.25;;;32.20;27.40;;;;;;923911;152;27498;-75
2023/06/16 11:32:18;;;;;;;3.17;2.45;;;32.10;27.60;;;;;;919708;153;27395;-75
2023/06/16 11:34:44;;;;;;;3.27;2.42;;;32.00;27.80;;;;;;921301;153;27386;-75
2023/06/16 11:37:10;;;;;;;2.83;2.45;;;32.00;27.90;;;;;;921286;153;27416;-75
2023/06/16 11:39:43;;;;;;;2.25;2.12;;;31.90;28.10;;;;;;920537;153;27411;-75
2023/06/16 11:42:12;;;;;;;3.17;2.45;;;31.90;28.20;;;;;;921394;153;27317;-75
2023/06/16 11:44:39;;;;;;;4.05;2.42;;;31.80;28.00;;;;;;897879;155;27528;-75
2023/06/16 11:47:06;;;;;;;3.72;2.30;;;31.80;28.00;;;;;;927053;151;27457;-75
2023/06/16 11:49:37;;;;;;;2.58;2.37;;;31.60;27.90;;;;;;910768;154;27485;-75
2023/06/16 11:52:02;;;;;;;2.20;1.98;;;31.60;28.00;;;;;;924175;151;27290;-75
2023/06/16 11:54:28;;;;;;;2.55;2.27;;;31.50;28.00;;;;;;923047;151;27307;-75
2023/06/16 11:56:55;;;;;;;2.25;2.00;;;31.40;28.00;;;;;;925276;151;27378;-76
2023/06/16 11:59:23;;;;;;;2.70;2.17;;;31.30;28.10;;;;;;907189;154;27401;-75
2023/06/16 12:01:48;;;;;;;2.52;2.33;;;31.30;28.30;;;;;;907863;154;27422;-75
2023/06/16 12:04:14;;;;;;;1.90;1.80;;;31.30;28.60;;;;;;896976;155;27437;-75
2023/06/16 12:06:41;;;;;;;2.20;2.10;;;31.20;28.90;;;;;;897707;155;27383;-75
2023/06/16 12:09:09;;;;;;;3.52;2.62;;;31.20;29.20;;;;;;897201;155;27422;-75
2023/06/16 12:11:34;;;;;;;2.52;2.33;;;31.20;29.10;;;;;;897379;155;27534;-75
2023/06/16 12:14:01;;;;;;;2.35;2.25;;;31.20;29.00;;;;;;896104;155;27429;-75
2023/06/16 12:16:27;;;;;;;2.90;2.35;;;31.20;29.00;;;;;;897843;155;27424;-76
2023/06/16 12:18:54;;;;;;;2.95;2.33;;;31.20;29.00;;;;;;897367;155;27427;-75
2023/06/16 12:21:20;;;;;;;2.58;2.37;;;31.20;29.10;;;;;;898424;155;27402;-75
2023/06/16 12:23:48;;;;;;;3.37;2.30;;;31.30;29.00;;;;;;895707;155;27400;-75
2023/06/16 12:26:36;;;;;;;2.45;1.95;;;31.30;29.10;;;;;;897033;155;27436;-75
2023/06/16 12:29:01;;;;;;;3.83;2.37;;;31.30;29.00;;;;;;896738;155;27432;-75
2023/06/16 12:31:31;;;;;;;2.08;1.90;;;31.30;28.90;;;;;;895014;155;27435;-75
2023/06/16 12:33:57;;;;;;;2.20;2.00;;;31.40;29.20;;;;;;898298;155;27398;-75
2023/06/16 12:36:24;;;;;;;2.70;2.50;;;31.40;29.30;;;;;;922118;151;27271;-75
2023/06/16 12:38:52;;;;;;;2.67;2.47;;;31.50;29.40;;;;;;920789;151;27407;-75
2023/06/16 12:41:20;;;;;;;2.80;2.60;;;31.50;29.40;;;;;;921882;152;27377;-75
2023/06/16 12:43:50;;;;;;;2.85;2.65;;;31.50;29.40;;;;;;906214;155;27494;-75
2023/06/16 12:46:16;;;;;;;2.67;2.25;;;31.60;29.60;;;;;;902961;155;27443;-75